sensor_id;sensor_type;location;lat;lon;timestamp;pressure;altitude;pressure_sealevel;temperature
76394;BMP180;65216;51.090;-115.352;2023-06-22T00:00:13;87373.00;;;23.00
76394;BMP180;65216;51.090;-115.352;2023-06-22T00:02:40;87385.40;;;23.00
76394;BMP180;65216;51.090;-115.352;2023-06-22T00:05:08;87395.80;;;23.00
76394;BMP180;65216;51.090;-115.352;2023-06-22T00:07:35;87405.40;;;23.00
76394;BMP180;65216;51.090;-115.352;2023-06-22T00:10:02;87412.00;;;23.00
76394;BMP180;65216;51.090;-115.352;2023-06-22T00:12:29;87409.20;;;23.00
76394;BMP180;65216;51.090;-115.352;2023-06-22T00:15:08;87401.20;;;23.00
76394;BMP180;65216;51.090;-115.352;2023-06-22T00:17:35;87402.60;;;23.00
76394;BMP180;65216;51.090;-115.352;2023-06-22T00:20:02;87413.40;;;23.00
76394;BMP180;65216;51.090;-115.352;2023-06-22T00:22:32;87408.40;;;22.96
76394;BMP180;65216;51.090;-115.352;2023-06-22T00:25:09;87398.00;;;22.92
76394;BMP180;65216;51.090;-115.352;2023-06-22T00:27:42;87391.40;;;22.90
76394;BMP180;65216;51.090;-115.352;2023-06-22T00:30:09;87405.00;;;22.90
76394;BMP180;65216;51.090;-115.352;2023-06-22T00:32:43;87392.00;;;22.90
76394;BMP180;65216;51.090;-115.352;2023-06-22T00:35:11;87396.60;;;22.90
76394;BMP180;65216;51.090;-115.352;2023-06-22T00:37:42;87396.60;;;22.90
76394;BMP180;65216;51.090;-115.352;2023-06-22T00:40:10;87389.80;;;22.90
76394;BMP180;65216;51.090;-115.352;2023-06-22T00:42:39;87397.80;;;22.90
76394;BMP180;65216;51.090;-115.352;2023-06-22T00:45:07;87389.60;;;22.90
76394;BMP180;65216;51.090;-115.352;2023-06-22T00:47:36;87384.60;;;22.90
76394;BMP180;65216;51.090;-115.352;2023-06-22T00:50:07;87391.00;;;22.94
76394;BMP180;65216;51.090;-115.352;2023-06-22T00:52:39;87385.80;;;23.00
76394;BMP180;65216;51.090;-115.352;2023-06-22T00:55:10;87383.00;;;23.00
76394;BMP180;65216;51.090;-115.352;2023-06-22T00:57:37;87386.80;;;23.00
76394;BMP180;65216;51.090;-115.352;2023-06-22T01:00:05;87379.20;;;23.00
76394;BMP180;65216;51.090;-115.352;2023-06-22T01:02:35;87374.80;;;23.04
76394;BMP180;65216;51.090;-115.352;2023-06-22T01:05:03;87372.00;;;23.10
76394;BMP180;65216;51.090;-115.352;2023-06-22T01:07:48;87370.80;;;23.10
76394;BMP180;65216;51.090;-115.352;2023-06-22T01:16:12;87363.60;;;23.20
76394;BMP180;65216;51.090;-115.352;2023-06-22T01:18:42;87367.40;;;23.20
76394;BMP180;65216;51.090;-115.352;2023-06-22T01:21:14;87354.60;;;23.20
76394;BMP180;65216;51.090;-115.352;2023-06-22T01:29:46;87359.20;;;23.30
76394;BMP180;65216;51.090;-115.352;2023-06-22T01:32:14;87357.20;;;23.30
76394;BMP180;65216;51.090;-115.352;2023-06-22T01:34:47;87352.40;;;23.30
76394;BMP180;65216;51.090;-115.352;2023-06-22T01:37:16;87357.40;;;23.38
76394;BMP180;65216;51.090;-115.352;2023-06-22T01:39:46;87352.60;;;23.40
76394;BMP180;65216;51.090;-115.352;2023-06-22T01:42:15;87351.20;;;23.40
76394;BMP180;65216;51.090;-115.352;2023-06-22T01:44:43;87359.80;;;23.40
76394;BMP180;65216;51.090;-115.352;2023-06-22T01:47:14;87361.00;;;23.40
76394;BMP180;65216;51.090;-115.352;2023-06-22T01:49:43;87348.00;;;23.40
76394;BMP180;65216;51.090;-115.352;2023-06-22T01:52:11;87360.20;;;23.40
76394;BMP180;65216;51.090;-115.352;2023-06-22T01:54:41;87350.40;;;23.40
76394;BMP180;65216;51.090;-115.352;2023-06-22T01:57:11;87354.80;;;23.40
76394;BMP180;65216;51.090;-115.352;2023-06-22T02:00:12;87351.40;;;23.40
76394;BMP180;65216;51.090;-115.352;2023-06-22T02:02:54;87346.20;;;23.30
76394;BMP180;65216;51.090;-115.352;2023-06-22T02:08:41;87341.80;;;23.30
76394;BMP180;65216;51.090;-115.352;2023-06-22T02:11:47;87351.80;;;23.30
76394;BMP180;65216;51.090;-115.352;2023-06-22T02:14:36;87347.20;;;23.30
76394;BMP180;65216;51.090;-115.352;2023-06-22T02:17:05;87345.80;;;23.24
76394;BMP180;65216;51.090;-115.352;2023-06-22T02:19:41;87351.40;;;23.20
76394;BMP180;65216;51.090;-115.352;2023-06-22T02:22:11;87359.40;;;23.20
76394;BMP180;65216;51.090;-115.352;2023-06-22T02:24:40;87358.80;;;23.20
76394;BMP180;65216;51.090;-115.352;2023-06-22T02:27:07;87361.40;;;23.20
76394;BMP180;65216;51.090;-115.352;2023-06-22T02:29:34;87363.60;;;23.20
76394;BMP180;65216;51.090;-115.352;2023-06-22T02:32:01;87362.40;;;23.20
76394;BMP180;65216;51.090;-115.352;2023-06-22T02:34:31;87372.40;;;23.18
76394;BMP180;65216;51.090;-115.352;2023-06-22T02:37:05;87364.00;;;23.10
76394;BMP180;65216;51.090;-115.352;2023-06-22T02:39:32;87372.00;;;23.10
76394;BMP180;65216;51.090;-115.352;2023-06-22T02:41:59;87370.60;;;23.10
76394;BMP180;65216;51.090;-115.352;2023-06-22T02:44:26;87377.20;;;23.10
76394;BMP180;65216;51.090;-115.352;2023-06-22T02:46:53;87371.00;;;23.10
76394;BMP180;65216;51.090;-115.352;2023-06-22T02:49:21;87368.80;;;23.00
76394;BMP180;65216;51.090;-115.352;2023-06-22T02:51:49;87374.40;;;23.00
76394;BMP180;65216;51.090;-115.352;2023-06-22T02:54:16;87361.20;;;23.00
76394;BMP180;65216;51.090;-115.352;2023-06-22T02:56:44;87371.20;;;23.00
76394;BMP180;65216;51.090;-115.352;2023-06-22T02:59:36;87371.00;;;23.00
76394;BMP180;65216;51.090;-115.352;2023-06-22T03:02:09;87368.40;;;22.96
76394;BMP180;65216;51.090;-115.352;2023-06-22T03:04:36;87365.80;;;22.90
76394;BMP180;65216;51.090;-115.352;2023-06-22T03:07:05;87361.80;;;22.90
76394;BMP180;65216;51.090;-115.352;2023-06-22T03:09:32;87364.00;;;22.90
76394;BMP180;65216;51.090;-115.352;2023-06-22T03:11:59;87368.20;;;22.90
76394;BMP180;65216;51.090;-115.352;2023-06-22T03:14:29;87375.40;;;22.84
76394;BMP180;65216;51.090;-115.352;2023-06-22T03:16:56;87373.00;;;22.82
76394;BMP180;65216;51.090;-115.352;2023-06-22T03:19:31;87371.00;;;22.80
76394;BMP180;65216;51.090;-115.352;2023-06-22T03:21:59;87367.00;;;22.80
76394;BMP180;65216;51.090;-115.352;2023-06-22T03:24:26;87358.60;;;22.80
76394;BMP180;65216;51.090;-115.352;2023-06-22T03:26:56;87361.20;;;22.80
76394;BMP180;65216;51.090;-115.352;2023-06-22T03:29:23;87369.00;;;22.80
76394;BMP180;65216;51.090;-115.352;2023-06-22T03:31:51;87366.60;;;22.80
76394;BMP180;65216;51.090;-115.352;2023-06-22T03:34:19;87371.00;;;22.80
76394;BMP180;65216;51.090;-115.352;2023-06-22T03:36:46;87375.40;;;22.80
76394;BMP180;65216;51.090;-115.352;2023-06-22T03:39:16;87364.40;;;22.70
76394;BMP180;65216;51.090;-115.352;2023-06-22T03:41:43;87380.00;;;22.70
76394;BMP180;65216;51.090;-115.352;2023-06-22T03:44:10;87377.80;;;22.70
76394;BMP180;65216;51.090;-115.352;2023-06-22T03:46:41;87381.40;;;22.70
76394;BMP180;65216;51.090;-115.352;2023-06-22T03:49:08;87378.20;;;22.70
76394;BMP180;65216;51.090;-115.352;2023-06-22T03:51:35;87386.60;;;22.70
76394;BMP180;65216;51.090;-115.352;2023-06-22T03:54:03;87388.00;;;22.60
76394;BMP180;65216;51.090;-115.352;2023-06-22T03:56:29;87393.00;;;22.60
76394;BMP180;65216;51.090;-115.352;2023-06-22T03:58:56;87391.80;;;22.60
76394;BMP180;65216;51.090;-115.352;2023-06-22T04:01:23;87387.80;;;22.60
76394;BMP180;65216;51.090;-115.352;2023-06-22T04:03:53;87378.60;;;22.60
76394;BMP180;65216;51.090;-115.352;2023-06-22T04:06:20;87394.20;;;22.60
76394;BMP180;65216;51.090;-115.352;2023-06-22T04:08:49;87388.80;;;22.60
76394;BMP180;65216;51.090;-115.352;2023-06-22T04:11:18;87398.40;;;22.60
76394;BMP180;65216;51.090;-115.352;2023-06-22T04:13:45;87400.80;;;22.60
76394;BMP180;65216;51.090;-115.352;2023-06-22T04:16:13;87400.80;;;22.54
76394;BMP180;65216;51.090;-115.352;2023-06-22T04:18:40;87399.00;;;22.50
76394;BMP180;65216;51.090;-115.352;2023-06-22T04:21:08;87397.60;;;22.50
76394;BMP180;65216;51.090;-115.352;2023-06-22T04:23:37;87396.60;;;22.50
76394;BMP180;65216;51.090;-115.352;2023-06-22T04:26:05;87398.40;;;22.50
76394;BMP180;65216;51.090;-115.352;2023-06-22T04:28:32;87394.00;;;22.50
76394;BMP180;65216;51.090;-115.352;2023-06-22T04:31:04;87402.60;;;22.44
76394;BMP180;65216;51.090;-115.352;2023-06-22T04:33:31;87398.20;;;22.40
76394;BMP180;65216;51.090;-115.352;2023-06-22T04:35:59;87398.40;;;22.40
76394;BMP180;65216;51.090;-115.352;2023-06-22T04:38:30;87391.60;;;22.40
76394;BMP180;65216;51.090;-115.352;2023-06-22T04:40:59;87394.20;;;22.40
76394;BMP180;65216;51.090;-115.352;2023-06-22T04:43:29;87387.80;;;22.40
76394;BMP180;65216;51.090;-115.352;2023-06-22T04:45:57;87388.80;;;22.40
76394;BMP180;65216;51.090;-115.352;2023-06-22T04:48:33;87388.60;;;22.40
76394;BMP180;65216;51.090;-115.352;2023-06-22T04:51:02;87391.60;;;22.40
76394;BMP180;65216;51.090;-115.352;2023-06-22T04:53:33;87389.00;;;22.40
76394;BMP180;65216;51.090;-115.352;2023-06-22T04:56:00;87392.80;;;22.40
76394;BMP180;65216;51.090;-115.352;2023-06-22T04:58:30;87393.20;;;22.32
76394;BMP180;65216;51.090;-115.352;2023-06-22T05:00:58;87399.00;;;22.30
76394;BMP180;65216;51.090;-115.352;2023-06-22T05:03:26;87399.80;;;22.30
76394;BMP180;65216;51.090;-115.352;2023-06-22T05:05:56;87407.00;;;22.30
76394;BMP180;65216;51.090;-115.352;2023-06-22T05:08:23;87405.80;;;22.30
76394;BMP180;65216;51.090;-115.352;2023-06-22T05:10:53;87406.40;;;22.30
76394;BMP180;65216;51.090;-115.352;2023-06-22T05:13:19;87407.00;;;22.30
76394;BMP180;65216;51.090;-115.352;2023-06-22T05:15:48;87407.80;;;22.30
76394;BMP180;65216;51.090;-115.352;2023-06-22T05:18:17;87400.40;;;22.30
76394;BMP180;65216;51.090;-115.352;2023-06-22T05:20:43;87406.00;;;22.30
76394;BMP180;65216;51.090;-115.352;2023-06-22T05:23:13;87408.80;;;22.30
76394;BMP180;65216;51.090;-115.352;2023-06-22T05:25:40;87403.60;;;22.30
76394;BMP180;65216;51.090;-115.352;2023-06-22T05:28:10;87405.40;;;22.30
76394;BMP180;65216;51.090;-115.352;2023-06-22T05:30:37;87403.20;;;22.26
76394;BMP180;65216;51.090;-115.352;2023-06-22T05:33:04;87410.20;;;22.20
76394;BMP180;65216;51.090;-115.352;2023-06-22T05:35:32;87408.60;;;22.20
76394;BMP180;65216;51.090;-115.352;2023-06-22T05:37:58;87407.60;;;22.20
76394;BMP180;65216;51.090;-115.352;2023-06-22T05:40:28;87409.00;;;22.22
76394;BMP180;65216;51.090;-115.352;2023-06-22T05:42:57;87410.20;;;22.20
76394;BMP180;65216;51.090;-115.352;2023-06-22T05:45:26;87411.60;;;22.20
76394;BMP180;65216;51.090;-115.352;2023-06-22T05:47:53;87417.40;;;22.20
76394;BMP180;65216;51.090;-115.352;2023-06-22T05:50:20;87414.60;;;22.20
76394;BMP180;65216;51.090;-115.352;2023-06-22T05:52:47;87420.60;;;22.20
76394;BMP180;65216;51.090;-115.352;2023-06-22T05:55:14;87419.40;;;22.20
76394;BMP180;65216;51.090;-115.352;2023-06-22T05:57:44;87419.80;;;22.20
76394;BMP180;65216;51.090;-115.352;2023-06-22T06:00:11;87423.60;;;22.20
76394;BMP180;65216;51.090;-115.352;2023-06-22T06:02:39;87419.60;;;22.20
76394;BMP180;65216;51.090;-115.352;2023-06-22T06:05:13;87428.00;;;22.20
76394;BMP180;65216;51.090;-115.352;2023-06-22T06:07:44;87428.80;;;22.20
76394;BMP180;65216;51.090;-115.352;2023-06-22T06:10:11;87425.00;;;22.20
76394;BMP180;65216;51.090;-115.352;2023-06-22T06:12:38;87426.00;;;22.20
76394;BMP180;65216;51.090;-115.352;2023-06-22T06:15:06;87429.40;;;22.20
76394;BMP180;65216;51.090;-115.352;2023-06-22T06:17:32;87425.00;;;22.20
76394;BMP180;65216;51.090;-115.352;2023-06-22T06:20:00;87428.40;;;22.20
76394;BMP180;65216;51.090;-115.352;2023-06-22T06:22:27;87429.40;;;22.20
76394;BMP180;65216;51.090;-115.352;2023-06-22T06:24:54;87426.20;;;22.16
76394;BMP180;65216;51.090;-115.352;2023-06-22T06:27:20;87427.00;;;22.14
76394;BMP180;65216;51.090;-115.352;2023-06-22T06:29:55;87426.60;;;22.12
76394;BMP180;65216;51.090;-115.352;2023-06-22T06:32:22;87433.20;;;22.10
76394;BMP180;65216;51.090;-115.352;2023-06-22T06:34:49;87435.40;;;22.10
76394;BMP180;65216;51.090;-115.352;2023-06-22T06:37:17;87435.20;;;22.10
76394;BMP180;65216;51.090;-115.352;2023-06-22T06:39:45;87433.00;;;22.10
76394;BMP180;65216;51.090;-115.352;2023-06-22T06:42:11;87431.80;;;22.10
76394;BMP180;65216;51.090;-115.352;2023-06-22T06:44:38;87433.00;;;22.10
76394;BMP180;65216;51.090;-115.352;2023-06-22T06:47:08;87430.40;;;22.10
76394;BMP180;65216;51.090;-115.352;2023-06-22T06:49:34;87433.80;;;22.10
76394;BMP180;65216;51.090;-115.352;2023-06-22T06:52:04;87430.40;;;22.10
76394;BMP180;65216;51.090;-115.352;2023-06-22T06:54:33;87434.20;;;22.10
76394;BMP180;65216;51.090;-115.352;2023-06-22T06:57:03;87430.80;;;22.10
76394;BMP180;65216;51.090;-115.352;2023-06-22T06:59:32;87428.40;;;22.10
76394;BMP180;65216;51.090;-115.352;2023-06-22T07:02:02;87433.00;;;22.10
76394;BMP180;65216;51.090;-115.352;2023-06-22T07:04:29;87427.00;;;22.10
76394;BMP180;65216;51.090;-115.352;2023-06-22T07:07:01;87426.80;;;22.10
76394;BMP180;65216;51.090;-115.352;2023-06-22T07:09:29;87428.20;;;22.10
76394;BMP180;65216;51.090;-115.352;2023-06-22T07:11:55;87431.20;;;22.10
76394;BMP180;65216;51.090;-115.352;2023-06-22T07:14:23;87428.00;;;22.10
76394;BMP180;65216;51.090;-115.352;2023-06-22T07:16:50;87430.60;;;22.10
76394;BMP180;65216;51.090;-115.352;2023-06-22T07:19:24;87430.60;;;22.10
76394;BMP180;65216;51.090;-115.352;2023-06-22T07:21:52;87430.80;;;22.10
76394;BMP180;65216;51.090;-115.352;2023-06-22T07:24:23;87429.40;;;22.08
76394;BMP180;65216;51.090;-115.352;2023-06-22T07:26:51;87426.80;;;22.08
76394;BMP180;65216;51.090;-115.352;2023-06-22T07:29:19;87427.60;;;22.08
76394;BMP180;65216;51.090;-115.352;2023-06-22T07:31:50;87425.40;;;22.08
76394;BMP180;65216;51.090;-115.352;2023-06-22T07:34:22;87427.40;;;22.04
76394;BMP180;65216;51.090;-115.352;2023-06-22T07:36:49;87425.80;;;22.00
76394;BMP180;65216;51.090;-115.352;2023-06-22T07:39:16;87425.60;;;22.00
76394;BMP180;65216;51.090;-115.352;2023-06-22T07:41:43;87421.20;;;22.00
76394;BMP180;65216;51.090;-115.352;2023-06-22T07:44:10;87421.60;;;22.00
76394;BMP180;65216;51.090;-115.352;2023-06-22T07:46:36;87420.60;;;22.00
76394;BMP180;65216;51.090;-115.352;2023-06-22T07:49:06;87419.20;;;22.00
76394;BMP180;65216;51.090;-115.352;2023-06-22T07:51:34;87418.60;;;22.00
76394;BMP180;65216;51.090;-115.352;2023-06-22T07:54:04;87418.60;;;22.00
76394;BMP180;65216;51.090;-115.352;2023-06-22T07:56:34;87418.20;;;22.00
76394;BMP180;65216;51.090;-115.352;2023-06-22T07:59:00;87425.60;;;22.00
76394;BMP180;65216;51.090;-115.352;2023-06-22T08:01:30;87419.80;;;22.00
76394;BMP180;65216;51.090;-115.352;2023-06-22T08:03:57;87419.00;;;22.00
76394;BMP180;65216;51.090;-115.352;2023-06-22T08:06:23;87421.40;;;22.00
76394;BMP180;65216;51.090;-115.352;2023-06-22T08:08:50;87425.60;;;22.00
76394;BMP180;65216;51.090;-115.352;2023-06-22T08:11:19;87429.20;;;22.00
76394;BMP180;65216;51.090;-115.352;2023-06-22T08:13:48;87426.80;;;22.00
76394;BMP180;65216;51.090;-115.352;2023-06-22T08:16:15;87430.80;;;22.00
76394;BMP180;65216;51.090;-115.352;2023-06-22T08:18:42;87431.80;;;22.00
76394;BMP180;65216;51.090;-115.352;2023-06-22T08:21:09;87428.60;;;22.00
76394;BMP180;65216;51.090;-115.352;2023-06-22T08:23:37;87433.00;;;21.94
76394;BMP180;65216;51.090;-115.352;2023-06-22T08:26:04;87430.80;;;21.90
76394;BMP180;65216;51.090;-115.352;2023-06-22T08:28:31;87426.80;;;21.90
76394;BMP180;65216;51.090;-115.352;2023-06-22T08:30:59;87429.20;;;21.90
76394;BMP180;65216;51.090;-115.352;2023-06-22T08:33:27;87432.80;;;21.90
76394;BMP180;65216;51.090;-115.352;2023-06-22T08:35:59;87433.60;;;21.90
76394;BMP180;65216;51.090;-115.352;2023-06-22T08:38:26;87432.00;;;21.90
76394;BMP180;65216;51.090;-115.352;2023-06-22T08:40:53;87426.60;;;21.90
76394;BMP180;65216;51.090;-115.352;2023-06-22T08:43:23;87431.00;;;21.90
76394;BMP180;65216;51.090;-115.352;2023-06-22T08:45:49;87434.20;;;21.84
76394;BMP180;65216;51.090;-115.352;2023-06-22T08:48:19;87433.80;;;21.82
76394;BMP180;65216;51.090;-115.352;2023-06-22T08:50:48;87434.20;;;21.80
76394;BMP180;65216;51.090;-115.352;2023-06-22T08:53:15;87430.40;;;21.80
76394;BMP180;65216;51.090;-115.352;2023-06-22T08:55:42;87431.80;;;21.80
76394;BMP180;65216;51.090;-115.352;2023-06-22T08:58:09;87432.20;;;21.80
76394;BMP180;65216;51.090;-115.352;2023-06-22T09:01:13;87429.00;;;21.80
76394;BMP180;65216;51.090;-115.352;2023-06-22T09:03:42;87432.20;;;21.80
76394;BMP180;65216;51.090;-115.352;2023-06-22T09:06:09;87436.40;;;21.80
76394;BMP180;65216;51.090;-115.352;2023-06-22T09:08:38;87435.20;;;21.80
76394;BMP180;65216;51.090;-115.352;2023-06-22T09:11:07;87440.20;;;21.80
76394;BMP180;65216;51.090;-115.352;2023-06-22T09:13:37;87441.20;;;21.80
76394;BMP180;65216;51.090;-115.352;2023-06-22T09:16:04;87441.80;;;21.80
76394;BMP180;65216;51.090;-115.352;2023-06-22T09:18:31;87444.20;;;21.78
76394;BMP180;65216;51.090;-115.352;2023-06-22T09:20:58;87443.40;;;21.70
76394;BMP180;65216;51.090;-115.352;2023-06-22T09:23:25;87442.60;;;21.70
76394;BMP180;65216;51.090;-115.352;2023-06-22T09:25:52;87445.60;;;21.70
76394;BMP180;65216;51.090;-115.352;2023-06-22T09:28:21;87445.00;;;21.70
76394;BMP180;65216;51.090;-115.352;2023-06-22T09:30:47;87444.40;;;21.70
76394;BMP180;65216;51.090;-115.352;2023-06-22T09:33:14;87443.60;;;21.70
76394;BMP180;65216;51.090;-115.352;2023-06-22T09:35:41;87444.60;;;21.70
76394;BMP180;65216;51.090;-115.352;2023-06-22T09:38:08;87444.80;;;21.70
76394;BMP180;65216;51.090;-115.352;2023-06-22T09:40:34;87448.40;;;21.70
76394;BMP180;65216;51.090;-115.352;2023-06-22T09:43:06;87448.80;;;21.70
76394;BMP180;65216;51.090;-115.352;2023-06-22T09:45:33;87451.80;;;21.70
76394;BMP180;65216;51.090;-115.352;2023-06-22T09:47:59;87446.40;;;21.70
76394;BMP180;65216;51.090;-115.352;2023-06-22T09:50:26;87446.80;;;21.70
76394;BMP180;65216;51.090;-115.352;2023-06-22T09:52:53;87441.20;;;21.70
76394;BMP180;65216;51.090;-115.352;2023-06-22T09:55:22;87446.00;;;21.70
76394;BMP180;65216;51.090;-115.352;2023-06-22T09:57:49;87446.20;;;21.64
76394;BMP180;65216;51.090;-115.352;2023-06-22T10:00:17;87451.20;;;21.60
76394;BMP180;65216;51.090;-115.352;2023-06-22T10:02:46;87452.60;;;21.60
76394;BMP180;65216;51.090;-115.352;2023-06-22T10:05:13;87453.40;;;21.60
76394;BMP180;65216;51.090;-115.352;2023-06-22T10:07:40;87458.40;;;21.60
76394;BMP180;65216;51.090;-115.352;2023-06-22T10:10:13;87457.60;;;21.60
76394;BMP180;65216;51.090;-115.352;2023-06-22T10:12:54;87457.60;;;21.60
76394;BMP180;65216;51.090;-115.352;2023-06-22T10:15:21;87455.40;;;21.60
76394;BMP180;65216;51.090;-115.352;2023-06-22T10:17:48;87454.20;;;21.60
76394;BMP180;65216;51.090;-115.352;2023-06-22T10:20:15;87459.40;;;21.60
76394;BMP180;65216;51.090;-115.352;2023-06-22T10:22:45;87460.00;;;21.60
76394;BMP180;65216;51.090;-115.352;2023-06-22T10:25:15;87462.00;;;21.60
76394;BMP180;65216;51.090;-115.352;2023-06-22T10:27:41;87458.20;;;21.60
76394;BMP180;65216;51.090;-115.352;2023-06-22T10:30:13;87459.20;;;21.60
76394;BMP180;65216;51.090;-115.352;2023-06-22T10:32:41;87458.60;;;21.60
76394;BMP180;65216;51.090;-115.352;2023-06-22T10:35:10;87462.40;;;21.60
76394;BMP180;65216;51.090;-115.352;2023-06-22T10:37:45;87466.20;;;21.60
76394;BMP180;65216;51.090;-115.352;2023-06-22T10:40:16;87463.00;;;21.60
76394;BMP180;65216;51.090;-115.352;2023-06-22T10:42:44;87461.40;;;21.60
76394;BMP180;65216;51.090;-115.352;2023-06-22T10:45:12;87468.60;;;21.60
76394;BMP180;65216;51.090;-115.352;2023-06-22T10:47:39;87464.80;;;21.60
76394;BMP180;65216;51.090;-115.352;2023-06-22T10:50:09;87465.40;;;21.60
76394;BMP180;65216;51.090;-115.352;2023-06-22T10:52:35;87464.00;;;21.60
76394;BMP180;65216;51.090;-115.352;2023-06-22T10:55:02;87464.20;;;21.60
76394;BMP180;65216;51.090;-115.352;2023-06-22T10:57:30;87469.60;;;21.60
76394;BMP180;65216;51.090;-115.352;2023-06-22T10:59:57;87478.60;;;21.60
76394;BMP180;65216;51.090;-115.352;2023-06-22T11:02:24;87475.00;;;21.60
76394;BMP180;65216;51.090;-115.352;2023-06-22T11:04:51;87476.40;;;21.60
76394;BMP180;65216;51.090;-115.352;2023-06-22T11:07:18;87478.40;;;21.60
76394;BMP180;65216;51.090;-115.352;2023-06-22T11:09:44;87478.40;;;21.60
76394;BMP180;65216;51.090;-115.352;2023-06-22T11:12:17;87474.40;;;21.60
76394;BMP180;65216;51.090;-115.352;2023-06-22T11:14:44;87475.00;;;21.52
76394;BMP180;65216;51.090;-115.352;2023-06-22T11:17:11;87476.00;;;21.50
76394;BMP180;65216;51.090;-115.352;2023-06-22T11:19:38;87472.20;;;21.50
76394;BMP180;65216;51.090;-115.352;2023-06-22T11:22:05;87471.20;;;21.50
76394;BMP180;65216;51.090;-115.352;2023-06-22T11:24:32;87468.00;;;21.50
76394;BMP180;65216;51.090;-115.352;2023-06-22T11:26:59;87470.80;;;21.50
76394;BMP180;65216;51.090;-115.352;2023-06-22T11:29:26;87469.20;;;21.50
76394;BMP180;65216;51.090;-115.352;2023-06-22T11:31:53;87468.60;;;21.50
76394;BMP180;65216;51.090;-115.352;2023-06-22T11:34:20;87468.60;;;21.50
76394;BMP180;65216;51.090;-115.352;2023-06-22T11:36:49;87470.00;;;21.50
76394;BMP180;65216;51.090;-115.352;2023-06-22T11:39:16;87466.60;;;21.50
76394;BMP180;65216;51.090;-115.352;2023-06-22T11:41:43;87466.00;;;21.50
76394;BMP180;65216;51.090;-115.352;2023-06-22T11:44:12;87467.20;;;21.50
76394;BMP180;65216;51.090;-115.352;2023-06-22T11:46:39;87466.40;;;21.50
76394;BMP180;65216;51.090;-115.352;2023-06-22T11:49:06;87465.00;;;21.48
76394;BMP180;65216;51.090;-115.352;2023-06-22T11:51:35;87463.60;;;21.50
76394;BMP180;65216;51.090;-115.352;2023-06-22T11:54:02;87459.40;;;21.48
76394;BMP180;65216;51.090;-115.352;2023-06-22T11:56:32;87457.20;;;21.48
76394;BMP180;65216;51.090;-115.352;2023-06-22T11:58:59;87451.40;;;21.50
76394;BMP180;65216;51.090;-115.352;2023-06-22T12:01:26;87450.80;;;21.50
76394;BMP180;65216;51.090;-115.352;2023-06-22T12:03:52;87449.60;;;21.46
76394;BMP180;65216;51.090;-115.352;2023-06-22T12:06:19;87448.00;;;21.46
76394;BMP180;65216;51.090;-115.352;2023-06-22T12:08:48;87443.60;;;21.40
76394;BMP180;65216;51.090;-115.352;2023-06-22T12:11:15;87444.80;;;21.40
76394;BMP180;65216;51.090;-115.352;2023-06-22T12:13:45;87444.60;;;21.40
76394;BMP180;65216;51.090;-115.352;2023-06-22T12:16:15;87444.40;;;21.40
76394;BMP180;65216;51.090;-115.352;2023-06-22T12:18:41;87445.00;;;21.40
76394;BMP180;65216;51.090;-115.352;2023-06-22T12:21:08;87443.80;;;21.40
76394;BMP180;65216;51.090;-115.352;2023-06-22T12:23:35;87444.20;;;21.40
76394;BMP180;65216;51.090;-115.352;2023-06-22T12:26:02;87439.80;;;21.40
76394;BMP180;65216;51.090;-115.352;2023-06-22T12:28:31;87447.60;;;21.40
76394;BMP180;65216;51.090;-115.352;2023-06-22T12:30:58;87439.00;;;21.40
76394;BMP180;65216;51.090;-115.352;2023-06-22T12:33:25;87442.00;;;21.40
76394;BMP180;65216;51.090;-115.352;2023-06-22T12:35:52;87439.40;;;21.40
76394;BMP180;65216;51.090;-115.352;2023-06-22T12:38:18;87431.00;;;21.40
76394;BMP180;65216;51.090;-115.352;2023-06-22T12:40:48;87433.40;;;21.40
76394;BMP180;65216;51.090;-115.352;2023-06-22T12:43:18;87429.80;;;21.40
76394;BMP180;65216;51.090;-115.352;2023-06-22T12:45:47;87432.80;;;21.40
76394;BMP180;65216;51.090;-115.352;2023-06-22T12:48:14;87431.00;;;21.40
76394;BMP180;65216;51.090;-115.352;2023-06-22T12:50:44;87433.60;;;21.40
76394;BMP180;65216;51.090;-115.352;2023-06-22T12:53:10;87431.00;;;21.40
76394;BMP180;65216;51.090;-115.352;2023-06-22T12:55:42;87435.20;;;21.40
76394;BMP180;65216;51.090;-115.352;2023-06-22T12:58:09;87434.60;;;21.40
76394;BMP180;65216;51.090;-115.352;2023-06-22T13:00:35;87428.80;;;21.40
76394;BMP180;65216;51.090;-115.352;2023-06-22T13:03:11;87427.20;;;21.40
76394;BMP180;65216;51.090;-115.352;2023-06-22T13:05:38;87422.20;;;21.40
76394;BMP180;65216;51.090;-115.352;2023-06-22T13:08:08;87419.80;;;21.40
76394;BMP180;65216;51.090;-115.352;2023-06-22T13:10:34;87420.80;;;21.40
76394;BMP180;65216;51.090;-115.352;2023-06-22T13:13:01;87425.60;;;21.40
76394;BMP180;65216;51.090;-115.352;2023-06-22T13:15:29;87426.00;;;21.40
76394;BMP180;65216;51.090;-115.352;2023-06-22T13:17:56;87420.60;;;21.38
76394;BMP180;65216;51.090;-115.352;2023-06-22T13:20:23;87428.60;;;21.40
76394;BMP180;65216;51.090;-115.352;2023-06-22T13:22:50;87420.00;;;21.38
76394;BMP180;65216;51.090;-115.352;2023-06-22T13:25:16;87413.20;;;21.38
76394;BMP180;65216;51.090;-115.352;2023-06-22T13:27:45;87404.60;;;21.34
76394;BMP180;65216;51.090;-115.352;2023-06-22T13:30:13;87408.60;;;21.32
76394;BMP180;65216;51.090;-115.352;2023-06-22T13:32:39;87410.00;;;21.30
76394;BMP180;65216;51.090;-115.352;2023-06-22T13:35:10;87406.60;;;21.30
76394;BMP180;65216;51.090;-115.352;2023-06-22T13:37:40;87401.20;;;21.30
76394;BMP180;65216;51.090;-115.352;2023-06-22T13:40:13;87407.00;;;21.30
76394;BMP180;65216;51.090;-115.352;2023-06-22T13:42:39;87406.20;;;21.30
76394;BMP180;65216;51.090;-115.352;2023-06-22T13:45:08;87404.80;;;21.30
76394;BMP180;65216;51.090;-115.352;2023-06-22T13:47:35;87400.40;;;21.30
76394;BMP180;65216;51.090;-115.352;2023-06-22T13:50:02;87400.60;;;21.30
76394;BMP180;65216;51.090;-115.352;2023-06-22T13:52:29;87408.60;;;21.30
76394;BMP180;65216;51.090;-115.352;2023-06-22T13:54:58;87391.80;;;21.30